Map

Track Data

SID SEASON NUMBER BASIN SUBBASIN NAME ISO_TIME NATURE LAT LON WMO_WIND WMO_PRES WMO_AGENCY TRACK_TYPE DIST2LAND LANDFALL IFLAG USA_AGENCY USA_ATCF_ID USA_LAT USA_LON USA_RECORD USA_STATUS USA_WIND USA_PRES USA_SSHS USA_R34_NE USA_R34_SE USA_R34_SW USA_R34_NW USA_R50_NE USA_R50_SE USA_R50_SW USA_R50_NW USA_R64_NE USA_R64_SE USA_R64_SW USA_R64_NW USA_POCI USA_ROCI USA_RMW USA_EYE TOKYO_LAT TOKYO_LON TOKYO_GRADE TOKYO_WIND TOKYO_PRES TOKYO_R50_DIR TOKYO_R50_LONG TOKYO_R50_SHORT TOKYO_R30_DIR TOKYO_R30_LONG TOKYO_R30_SHORT TOKYO_LAND CMA_LAT CMA_LON CMA_CAT CMA_WIND CMA_PRES HKO_LAT HKO_LON HKO_CAT HKO_WIND HKO_PRES NEWDELHI_LAT NEWDELHI_LON NEWDELHI_GRADE NEWDELHI_WIND NEWDELHI_PRES NEWDELHI_CI NEWDELHI_DP NEWDELHI_POCI REUNION_LAT REUNION_LON REUNION_TYPE REUNION_WIND REUNION_PRES REUNION_TNUM REUNION_CI REUNION_RMW REUNION_R34_NE REUNION_R34_SE REUNION_R34_SW REUNION_R34_NW REUNION_R50_NE REUNION_R50_SE REUNION_R50_SW REUNION_R50_NW REUNION_R64_NE REUNION_R64_SE REUNION_R64_SW REUNION_R64_NW BOM_LAT BOM_LON BOM_TYPE BOM_WIND BOM_PRES BOM_TNUM BOM_CI BOM_RMW BOM_R34_NE BOM_R34_SE BOM_R34_SW BOM_R34_NW BOM_R50_NE BOM_R50_SE BOM_R50_SW BOM_R50_NW BOM_R64_NE BOM_R64_SE BOM_R64_SW BOM_R64_NW BOM_ROCI BOM_POCI BOM_EYE BOM_POS_METHOD BOM_PRES_METHOD NADI_LAT NADI_LON NADI_CAT NADI_WIND NADI_PRES WELLINGTON_LAT WELLINGTON_LON WELLINGTON_WIND WELLINGTON_PRES DS824_LAT DS824_LON DS824_STAGE DS824_WIND DS824_PRES TD9636_LAT TD9636_LON TD9636_STAGE TD9636_WIND TD9636_PRES TD9635_LAT TD9635_LON TD9635_WIND TD9635_PRES TD9635_ROCI NEUMANN_LAT NEUMANN_LON NEUMANN_CLASS NEUMANN_WIND NEUMANN_PRES MLC_LAT MLC_LON MLC_CLASS MLC_WIND MLC_PRES USA_GUST BOM_GUST BOM_GUST_PER REUNION_GUST REUNION_GUST_PER USA_SEAHGT USA_SEARAD_NE USA_SEARAD_SE USA_SEARAD_SW USA_SEARAD_NW STORM_SPEED STORM_DIR
1893011S14059 1893 2 SI MM NOT_NAMED 1893-01-11 00:00:00 TS -13.9000 59.0000 main 707 694 _________O____ -1 -13.9000 59.0000 TC 4 236
1893011S14059 1893 2 SI MM NOT_NAMED 1893-01-11 03:00:00 TS -14.0000 58.8475 main 692 679 _________P____ -1 -14.0000 58.8475 TC 4 236
1893011S14059 1893 2 SI MM NOT_NAMED 1893-01-11 06:00:00 TS -14.1000 58.7000 main 679 667 _________O____ -1 -14.1000 58.7000 TC 3 235
1893011S14059 1893 2 SI MM NOT_NAMED 1893-01-11 09:00:00 TS -14.2000 58.5575 main 667 653 _________P____ -1 -14.2000 58.5575 TC 4 236
1893011S14059 1893 2 SI MM NOT_NAMED 1893-01-11 12:00:00 TS -14.3000 58.4000 main 653 640 _________O____ -1 -14.3000 58.4000 TC 4 239
1893011S14059 1893 2 SI MM NOT_NAMED 1893-01-11 15:00:00 TS -14.4000 58.2075 main 640 627 _________P____ -1 -14.4000 58.2075 TC 4 243
1893011S14059 1893 2 SI MM NOT_NAMED 1893-01-11 18:00:00 TS -14.5000 58.0000 main 627 615 _________O____ -1 -14.5000 58.0000 TC 4 244
1893011S14059 1893 2 SI MM NOT_NAMED 1893-01-11 21:00:00 TS -14.5698 57.8447 main 615 604 _________P____ -1 -14.5698 57.8447 TC 4 243
1893011S14059 1893 2 SI MM NOT_NAMED 1893-01-12 00:00:00 TS -14.7000 57.6000 main 604 582 _________O____ -1 -14.7000 57.6000 TC 8 240
1893011S14059 1893 2 SI MM NOT_NAMED 1893-01-12 03:00:00 TS -14.9627 57.1376 main 572 543 _________P____ -1 -14.9627 57.1376 TC 11 238
1893011S14059 1893 2 SI MM NOT_NAMED 1893-01-12 06:00:00 TS -15.3000 56.6000 main 545 521 _________O____ -1 -15.3000 56.6000 TC 12 234
1893011S14059 1893 2 SI MM NOT_NAMED 1893-01-12 09:00:00 TS -15.6423 56.1498 main 524 492 _________P____ -1 -15.6423 56.1498 TC 11 231
1893011S14059 1893 2 SI MM NOT_NAMED 1893-01-12 12:00:00 TS -16.0000 55.7000 main 496 479 _________O____ -1 -16.0000 55.7000 TC 12 232
1893011S14059 1893 2 SI MM NOT_NAMED 1893-01-12 15:00:00 TS -16.3574 55.2149 main 479 471 _________P____ -1 -16.3574 55.2149 TC 12 234
1893011S14059 1893 2 SI MM NOT_NAMED 1893-01-12 18:00:00 TS -16.7000 54.7000 main 471 433 _________O____ -1 -16.7000 54.7000 TC 12 238
1893011S14059 1893 2 SI MM NOT_NAMED 1893-01-12 21:00:00 TS -17.0151 54.1350 main 424 389 _________P____ -1 -17.0151 54.1350 TC 12 240
1893011S14059 1893 2 SI MM NOT_NAMED 1893-01-13 00:00:00 TS -17.3000 53.6000 main 389 360 _________O____ -1 -17.3000 53.6000 TC 11 239
1893011S14059 1893 2 SI MM NOT_NAMED 1893-01-13 03:00:00 TS -17.5648 53.1773 main 366 337 _________P____ -1 -17.5648 53.1773 TC 9 237
1893011S14059 1893 2 SI MM NOT_NAMED 1893-01-13 06:00:00 TS -17.8000 52.8000 main 337 306 _________O____ -1 -17.8000 52.8000 TC 9 239
1893011S14059 1893 2 SI MM NOT_NAMED 1893-01-13 09:00:00 TS -18.0150 52.3924 main 306 270 _________P____ -1 -18.0150 52.3924 TC 9 242
1893011S14059 1893 2 SI MM NOT_NAMED 1893-01-13 12:00:00 TS -18.2000 52.0000 main 270 242 _________O____ -1 -18.2000 52.0000 TC 8 245
1893011S14059 1893 2 SI MM NOT_NAMED 1893-01-13 15:00:00 TS -18.3498 51.6498 main 232 203 _________P____ -1 -18.3498 51.6498 TC 7 246
1893011S14059 1893 2 SI MM NOT_NAMED 1893-01-13 18:00:00 TS -18.5000 51.3000 main 203 167 _________O____ -1 -18.5000 51.3000 TC 8 244
1893011S14059 1893 2 SI MM NOT_NAMED 1893-01-13 21:00:00 TS -18.6925 50.9000 main 167 138 _________P____ -1 -18.6925 50.9000 TC 9 242
1893011S14059 1893 2 SI MM NOT_NAMED 1893-01-14 00:00:00 TS -18.9000 50.5000 main 138 114 _________O____ -1 -18.9000 50.5000 TC 8 240
1893011S14059 1893 2 SI MM NOT_NAMED 1893-01-14 03:00:00 TS -19.1073 50.1499 main 104 80 _________P____ -1 -19.1073 50.1499 TC 8 239
1893011S14059 1893 2 SI MM NOT_NAMED 1893-01-14 06:00:00 TS -19.3000 49.8000 main 80 47 _________O____ -1 -19.3000 49.8000 TC 8 244
1893011S14059 1893 2 SI MM NOT_NAMED 1893-01-14 09:00:00 TS -19.4575 49.3999 main 53 20 _________P____ -1 -19.4575 49.3999 TC 8 248
1893011S14059 1893 2 SI MM NOT_NAMED 1893-01-14 12:00:00 TS -19.6000 49.0000 main 20 0 _________O____ -1 -19.6000 49.0000 TC 8 247
1893011S14059 1893 2 SI MM NOT_NAMED 1893-01-14 15:00:00 TS -19.7573 48.6499 main 0 0 _________P____ -1 -19.7573 48.6499 TC 7 245
1893011S14059 1893 2 SI MM NOT_NAMED 1893-01-14 18:00:00 TS -19.9000 48.3000 main 0 0 _________O____ -1 -19.9000 48.3000 TC 7 250
1893011S14059 1893 2 SI MM NOT_NAMED 1893-01-14 21:00:00 TS -19.9998 47.9298 main 0 0 _________P____ -1 -19.9998 47.9298 TC 8 255
1893011S14059 1893 2 SI MM NOT_NAMED 1893-01-15 00:00:00 TS -20.1000 47.5000 main 0 0 _________O____ -1 -20.1000 47.5000 TC 9 254
1893011S14059 1893 2 SI MM NOT_NAMED 1893-01-15 03:00:00 TS -20.2499 46.9801 main 0 0 _________P____ -1 -20.2499 46.9801 TC 11 254
1893011S14059 1893 2 SI MM NOT_NAMED 1893-01-15 06:00:00 TS -20.4000 46.4000 main 0 0 _________O____ -1 -20.4000 46.4000 TC 11 256
1893011S14059 1893 2 SI MM NOT_NAMED 1893-01-15 09:00:00 TS -20.5149 45.8074 main 0 0 _________P____ -1 -20.5149 45.8074 TC 11 260
1893011S14059 1893 2 SI MM NOT_NAMED 1893-01-15 12:00:00 TS -20.6000 45.2000 main 0 0 _________O____ -1 -20.6000 45.2000 TC 11 264
1893011S14059 1893 2 SI MM NOT_NAMED 1893-01-15 15:00:00 TS -20.6423 44.5997 main 0 0 _________P____ -1 -20.6423 44.5997 TC 11 265
1893011S14059 1893 2 SI MM NOT_NAMED 1893-01-15 18:00:00 TS -20.7000 44.0000 main 0 0 _________O____ -1 -20.7000 44.0000 TC 12 262
1893011S14059 1893 2 SI MM NOT_NAMED 1893-01-15 21:00:00 TS -20.8129 43.3103 main 62 62 _________P____ -1 -20.8129 43.3103 TC 12 255
1893011S14059 1893 2 SI MM NOT_NAMED 1893-01-16 00:00:00 TS -21.0000 42.8000 main 85 83 _________O____ -1 -21.0000 42.8000 TC 8 232
1893011S14059 1893 2 SI MM NOT_NAMED 1893-01-16 03:00:00 TS -21.2771 42.6650 main 83 65 _________P____ -1 -21.2771 42.6650 TC 6 179
1893011S14059 1893 2 SI MM NOT_NAMED 1893-01-16 06:00:00 TS -21.6000 42.8000 main 65 23 _________O____ -1 -21.6000 42.8000 TC 8 150
1893011S14059 1893 2 SI MM NOT_NAMED 1893-01-16 09:00:00 TS -21.9227 43.0696 main 23 0 _________P____ -1 -21.9227 43.0696 TC 8 137
1893011S14059 1893 2 SI MM NOT_NAMED 1893-01-16 12:00:00 TS -22.2000 43.4000 main 0 0 _________O____ -1 -22.2000 43.4000 TC 7 132
1893011S14059 1893 2 SI MM NOT_NAMED 1893-01-16 15:00:00 TS -22.3724 43.6077 main 0 0 _________P____ -1 -22.3724 43.6077 TC 5 129
1893011S14059 1893 2 SI MM NOT_NAMED 1893-01-16 18:00:00 TS -22.5000 43.8000 main 0 0 _________O____ -1 -22.5000 43.8000 TC 5 125
1893011S14059 1893 2 SI MM NOT_NAMED 1893-01-16 21:00:00 TS -22.6500 44.0425 main 0 0 _________P____ -1 -22.6500 44.0425 TC 6 123
1893011S14059 1893 2 SI MM NOT_NAMED 1893-01-17 00:00:00 TS -22.8000 44.3000 main 0 0 _________O____ -1 -22.8000 44.3000 TC 6 124
1893011S14059 1893 2 SI MM NOT_NAMED 1893-01-17 03:00:00 TS -22.9574 44.5425 main 0 0 _________P____ -1 -22.9574 44.5425 TC 6 123
1893011S14059 1893 2 SI MM NOT_NAMED 1893-01-17 06:00:00 TS -23.1000 44.8000 main 0 0 _________O____ -1 -23.1000 44.8000 TC 6 116
1893011S14059 1893 2 SI MM NOT_NAMED 1893-01-17 09:00:00 TS -23.2075 45.1001 main 0 0 _________P____ -1 -23.2075 45.1001 TC 6 110
1893011S14059 1893 2 SI MM NOT_NAMED 1893-01-17 12:00:00 TS -23.3000 45.4000 main 0 0 _________O____ -1 -23.3000 45.4000 TC 5 111
1893011S14059 1893 2 SI MM NOT_NAMED 1893-01-17 15:00:00 TS -23.3999 45.6576 main 0 0 _________P____ -1 -23.3999 45.6576 TC 5 113
1893011S14059 1893 2 SI MM NOT_NAMED 1893-01-17 18:00:00 TS -23.5000 45.9000 main 0 0 _________O____ -1 -23.5000 45.9000 TC 5 114
1893011S14059 1893 2 SI MM NOT_NAMED 1893-01-17 21:00:00 TS -23.6001 46.1474 main 0 0 _________P____ -1 -23.6001 46.1474 TC 5 114
1893011S14059 1893 2 SI MM NOT_NAMED 1893-01-18 00:00:00 TS -23.7000 46.4000 main 0 _________O____ -1 -23.7000 46.4000 TC 5 114

About IBTrACS Database

This database is a web-friendly format of International Best Track Archive for Climate Stewardship (IBTrACS), a global best track data archive curated by NOAA dating back to 1842.

Updated: 2021-10-08